createdAt,value
2018-05-25T00:01:53.660Z,4.63
2018-05-25T00:04:21.634Z,5.20
2018-05-25T00:06:49.569Z,4.33
2018-05-25T00:09:17.475Z,4.70
2018-05-25T00:11:45.385Z,4.50
2018-05-25T00:14:13.317Z,4.70
2018-05-25T00:16:41.210Z,4.87
2018-05-25T00:19:09.133Z,4.63
2018-05-25T00:21:37.044Z,5.13
2018-05-25T00:24:04.959Z,4.60
2018-05-25T00:26:32.875Z,8.17
2018-05-25T00:29:00.808Z,79.43
2018-05-25T00:31:28.716Z,20.10
2018-05-25T00:33:56.644Z,60.60
2018-05-25T00:36:24.555Z,53.27
2018-05-25T00:38:52.496Z,42.10
2018-05-25T00:41:20.419Z,69.93
2018-05-25T00:43:48.336Z,89.80
2018-05-25T00:46:16.263Z,36.43
2018-05-25T00:48:44.160Z,15.50
2018-05-25T00:51:12.101Z,9.70
2018-05-25T00:53:40.013Z,5.60
2018-05-25T00:56:07.917Z,5.00
2018-05-25T00:58:35.831Z,4.60
2018-05-25T01:01:03.775Z,4.00
2018-05-25T01:03:31.679Z,5.30
2018-05-25T01:05:59.596Z,4.50
2018-05-25T01:08:27.591Z,5.10
2018-05-25T01:10:55.496Z,5.50
2018-05-25T01:13:23.403Z,4.53
2018-05-25T01:15:51.327Z,5.47
2018-05-25T01:18:19.264Z,5.87
2018-05-25T01:20:47.176Z,5.60
2018-05-25T01:23:15.083Z,5.60
2018-05-25T01:25:43.021Z,4.80
2018-05-25T01:28:10.923Z,4.73
2018-05-25T01:30:38.845Z,5.23
2018-05-25T01:33:06.745Z,4.97
2018-05-25T01:35:34.682Z,5.17
2018-05-25T01:38:02.583Z,4.87
2018-05-25T01:40:30.484Z,5.70
2018-05-25T01:42:58.419Z,4.60
2018-05-25T01:45:26.319Z,4.80
2018-05-25T01:47:54.239Z,4.90
2018-05-25T01:50:22.148Z,4.80
2018-05-25T01:52:50.060Z,5.17
2018-05-25T01:55:17.974Z,4.73
2018-05-25T01:57:45.888Z,6.10
2018-05-25T02:00:13.842Z,5.13
2018-05-25T02:02:41.751Z,5.20
2018-05-25T02:05:09.678Z,5.97
2018-05-25T02:07:37.576Z,5.93
2018-05-25T02:10:05.488Z,5.10
2018-05-25T02:12:33.405Z,4.90
2018-05-25T02:15:01.328Z,5.60
2018-05-25T02:17:29.251Z,5.77
2018-05-25T02:19:57.165Z,6.13
2018-05-25T02:22:25.078Z,4.80
2018-05-25T02:24:53.001Z,5.03
2018-05-25T02:27:20.979Z,5.67
2018-05-25T02:29:48.917Z,4.83
2018-05-25T02:32:16.840Z,5.43
2018-05-25T02:34:44.755Z,5.83
2018-05-25T02:37:12.660Z,6.53
2018-05-25T02:39:40.586Z,6.10
2018-05-25T02:42:08.558Z,5.77
2018-05-25T02:44:36.463Z,6.37
2018-05-25T02:47:04.373Z,5.90
2018-05-25T02:49:32.293Z,6.57
2018-05-25T02:52:00.197Z,6.90
2018-05-25T02:54:28.131Z,5.33
2018-05-25T02:56:56.019Z,6.27
2018-05-25T02:59:23.937Z,5.97
2018-05-25T03:01:51.855Z,5.70
2018-05-25T03:04:19.776Z,5.07
2018-05-25T03:06:47.800Z,6.17
2018-05-25T03:09:15.718Z,6.40
2018-05-25T03:11:43.636Z,6.50
2018-05-25T03:14:11.566Z,5.67
2018-05-25T03:16:39.493Z,6.10
2018-05-25T03:19:07.384Z,5.53
2018-05-25T03:21:35.428Z,6.50
2018-05-25T03:24:03.346Z,6.20
2018-05-25T03:26:31.269Z,5.83
2018-05-25T03:28:59.184Z,5.93
2018-05-25T03:31:27.126Z,5.30
2018-05-25T03:33:55.042Z,5.80
2018-05-25T03:36:22.948Z,5.80
2018-05-25T03:38:50.889Z,5.53
2018-05-25T03:41:18.869Z,6.00
2018-05-25T03:43:46.749Z,4.47
2018-05-25T03:46:14.679Z,5.20
2018-05-25T03:48:42.588Z,5.53
2018-05-25T03:51:10.550Z,6.10
2018-05-25T03:53:38.449Z,5.60
2018-05-25T03:56:06.364Z,4.87
2018-05-25T03:58:46.112Z,5.63
2018-05-25T04:01:25.812Z,5.27
2018-05-25T04:03:53.716Z,5.43
2018-05-25T04:06:21.638Z,5.40
2018-05-25T04:08:49.596Z,5.47
2018-05-25T04:11:17.525Z,4.80
2018-05-25T04:13:45.431Z,4.97
2018-05-25T04:16:13.357Z,4.60
2018-05-25T04:18:41.265Z,4.87
2018-05-25T04:21:09.182Z,5.20
2018-05-25T04:23:37.139Z,4.40
2018-05-25T04:26:05.116Z,5.27
2018-05-25T04:28:33.017Z,5.27
2018-05-25T04:31:00.944Z,4.87
2018-05-25T04:33:28.857Z,5.17
2018-05-25T04:35:56.777Z,4.67
2018-05-25T04:38:24.698Z,5.40
2018-05-25T04:40:52.654Z,4.03
2018-05-25T04:43:20.595Z,4.67
2018-05-25T04:45:48.464Z,4.57
2018-05-25T04:48:16.391Z,5.00
2018-05-25T04:50:44.299Z,4.93
2018-05-25T04:53:12.278Z,4.70
2018-05-25T04:55:40.169Z,5.13
2018-05-25T04:58:08.078Z,4.13
2018-05-25T05:00:35.998Z,4.60
2018-05-25T05:03:03.899Z,4.90
2018-05-25T05:05:31.837Z,4.70
2018-05-25T05:07:59.725Z,5.07
2018-05-25T05:10:27.644Z,4.70
2018-05-25T05:12:55.592Z,5.00
2018-05-25T05:15:23.673Z,4.37
2018-05-25T05:17:51.621Z,5.00
2018-05-25T05:20:19.544Z,4.50
2018-05-25T05:22:47.457Z,5.23
2018-05-25T05:25:15.397Z,4.23
2018-05-25T05:27:43.354Z,4.70
2018-05-25T05:30:11.320Z,4.80
2018-05-25T05:32:39.218Z,5.00
2018-05-25T05:35:07.141Z,4.13
2018-05-25T05:37:35.064Z,4.50
2018-05-25T05:40:02.981Z,5.60
2018-05-25T05:42:30.898Z,6.03
2018-05-25T05:44:58.816Z,4.77
2018-05-25T05:47:26.736Z,4.53
2018-05-25T05:49:54.746Z,4.70
2018-05-25T05:52:22.659Z,5.00
2018-05-25T05:54:50.569Z,4.70
2018-05-25T05:57:18.476Z,4.73
2018-05-25T05:59:46.421Z,3.90
2018-05-25T06:02:14.311Z,4.23
2018-05-25T06:04:42.238Z,4.40
2018-05-25T06:07:10.147Z,4.27
2018-05-25T06:09:38.052Z,4.40
2018-05-25T06:12:06.015Z,3.97
2018-05-25T06:14:33.972Z,3.60
2018-05-25T06:17:01.906Z,4.07
2018-05-25T06:19:29.823Z,4.37
2018-05-25T06:21:57.762Z,4.10
2018-05-25T06:24:25.689Z,3.67
2018-05-25T06:26:53.588Z,2.73
2018-05-25T06:29:21.495Z,3.30
2018-05-25T06:31:49.400Z,3.70
2018-05-25T06:34:17.324Z,3.67
2018-05-25T06:36:45.235Z,3.70
2018-05-25T06:39:13.158Z,3.13
2018-05-25T06:41:41.090Z,4.07
2018-05-25T06:44:09.001Z,3.77
2018-05-25T06:46:36.928Z,3.83
2018-05-25T06:49:04.867Z,3.30
2018-05-25T06:51:32.787Z,3.10
2018-05-25T06:54:00.733Z,3.00
2018-05-25T06:56:28.652Z,3.53
2018-05-25T06:58:56.581Z,3.50
2018-05-25T07:01:24.485Z,3.30
2018-05-25T07:03:52.398Z,4.00
2018-05-25T07:06:20.344Z,3.33
2018-05-25T07:08:48.298Z,3.10
2018-05-25T07:11:16.988Z,3.30
2018-05-25T07:13:44.970Z,3.00
2018-05-25T07:16:12.881Z,3.10
2018-05-25T07:18:40.940Z,2.80
2018-05-25T07:21:08.814Z,3.13
2018-05-25T07:23:36.724Z,3.90
2018-05-25T07:26:04.648Z,4.90
2018-05-25T07:28:32.576Z,4.73
2018-05-25T07:31:00.539Z,3.60
2018-05-25T07:33:28.574Z,3.67
2018-05-25T07:35:56.520Z,3.87
2018-05-25T07:38:24.533Z,3.07
2018-05-25T07:40:52.493Z,3.83
2018-05-25T07:43:20.522Z,3.73
2018-05-25T07:45:48.385Z,3.37
2018-05-25T07:48:16.340Z,3.50
2018-05-25T07:50:44.248Z,3.33
2018-05-25T07:53:12.183Z,3.30
2018-05-25T07:55:40.084Z,3.67
2018-05-25T07:58:08.022Z,3.20
2018-05-25T08:00:36.069Z,3.57
2018-05-25T08:03:04.144Z,3.73
2018-05-25T08:05:32.209Z,4.63
2018-05-25T08:08:00.136Z,3.20
2018-05-25T08:10:28.047Z,3.50
2018-05-25T08:12:55.971Z,3.20
2018-05-25T08:15:23.896Z,4.10
2018-05-25T08:17:51.823Z,3.57
2018-05-25T08:20:19.835Z,2.70
2018-05-25T08:22:47.744Z,4.13
2018-05-25T08:25:15.660Z,3.67
2018-05-25T08:27:43.584Z,2.97
2018-05-25T08:30:11.516Z,3.37
2018-05-25T08:32:39.439Z,3.20
2018-05-25T08:35:07.362Z,3.20
2018-05-25T08:37:35.297Z,11.77
2018-05-25T08:40:03.252Z,3.97
2018-05-25T08:42:31.193Z,3.23
2018-05-25T08:44:59.098Z,2.80
2018-05-25T08:47:27.078Z,3.00
2018-05-25T08:49:54.983Z,3.07
2018-05-25T08:52:22.900Z,2.83
2018-05-25T08:54:50.805Z,3.13
2018-05-25T08:57:18.734Z,3.50
2018-05-25T08:59:46.652Z,3.80
2018-05-25T09:02:14.564Z,2.80
2018-05-25T09:04:42.496Z,3.40
2018-05-25T09:07:10.421Z,6.90
2018-05-25T09:09:38.392Z,3.50
2018-05-25T09:12:06.396Z,2.40
2018-05-25T09:14:34.332Z,2.77
2018-05-25T09:17:02.236Z,2.30
2018-05-25T09:19:30.163Z,2.70
2018-05-25T09:21:58.093Z,3.30
2018-05-25T09:24:26.029Z,3.00
2018-05-25T09:26:53.997Z,2.70
2018-05-25T09:29:21.912Z,3.40
2018-05-25T09:31:49.843Z,2.57
2018-05-25T09:34:17.797Z,2.70
2018-05-25T09:36:45.717Z,3.00
2018-05-25T09:39:13.609Z,2.50
2018-05-25T09:41:41.543Z,2.67
2018-05-25T09:44:09.476Z,2.60
2018-05-25T09:46:37.387Z,2.80
2018-05-25T09:49:05.302Z,2.87
2018-05-25T09:51:33.235Z,2.43
2018-05-25T09:54:01.146Z,2.30
2018-05-25T09:56:29.064Z,2.23
2018-05-25T09:58:56.971Z,2.23
2018-05-25T10:01:24.908Z,1.97
2018-05-25T10:03:52.840Z,2.20
2018-05-25T10:06:20.784Z,2.10
2018-05-25T10:08:48.682Z,2.80
2018-05-25T10:11:16.703Z,2.40
2018-05-25T10:13:44.677Z,2.10
2018-05-25T10:16:12.590Z,2.43
2018-05-25T10:18:40.530Z,2.00
2018-05-25T10:21:08.628Z,2.07
2018-05-25T10:23:36.523Z,1.90
2018-05-25T10:26:04.470Z,1.87
2018-05-25T10:28:32.420Z,1.90
2018-05-25T10:31:00.353Z,1.90
2018-05-25T10:33:28.305Z,2.17
2018-05-25T10:35:56.226Z,1.83
2018-05-25T10:38:24.152Z,1.97
2018-05-25T10:40:52.074Z,1.93
2018-05-25T10:43:20.022Z,1.87
2018-05-25T10:45:47.926Z,1.93
2018-05-25T10:48:15.885Z,2.50
2018-05-25T10:50:43.801Z,2.43
2018-05-25T10:53:11.723Z,3.23
2018-05-25T10:55:39.672Z,2.23
2018-05-25T10:58:07.582Z,2.60
2018-05-25T11:00:35.515Z,2.63
2018-05-25T11:03:03.489Z,2.77
2018-05-25T11:05:31.423Z,2.93
2018-05-25T11:07:59.343Z,2.30
2018-05-25T11:10:27.273Z,2.20
2018-05-25T11:12:55.185Z,3.00
2018-05-25T11:15:23.097Z,2.10
2018-05-25T11:17:51.101Z,2.03
2018-05-25T11:20:19.044Z,2.63
2018-05-25T11:22:46.979Z,2.53
2018-05-25T11:25:14.892Z,2.87
2018-05-25T11:27:42.837Z,2.50
2018-05-25T11:30:10.773Z,2.40
2018-05-25T11:32:38.693Z,2.27
2018-05-25T11:35:06.604Z,3.17
2018-05-25T11:37:34.520Z,5.30
2018-05-25T11:40:02.425Z,4.17
2018-05-25T11:42:30.345Z,4.00
2018-05-25T11:44:58.276Z,14.90
2018-05-25T11:47:26.206Z,15.57
2018-05-25T11:49:54.165Z,28.80
2018-05-25T11:52:22.973Z,13.40
2018-05-25T11:54:50.930Z,26.30
2018-05-25T11:57:18.911Z,9.90
2018-05-25T11:59:47.992Z,6.03
2018-05-25T12:02:15.940Z,9.00
2018-05-25T12:04:43.915Z,12.67
2018-05-25T12:07:11.826Z,4.33
2018-05-25T12:09:39.771Z,6.23
2018-05-25T12:12:07.667Z,2.63
2018-05-25T12:14:35.623Z,3.60
2018-05-25T12:17:03.535Z,5.37
2018-05-25T12:19:31.448Z,6.47
2018-05-25T12:21:59.433Z,5.83
2018-05-25T12:24:27.340Z,4.50
2018-05-25T12:26:55.257Z,6.50
2018-05-25T12:29:23.179Z,4.00
2018-05-25T12:31:51.117Z,4.00
2018-05-25T12:34:19.056Z,3.40
2018-05-25T12:36:46.972Z,3.00
2018-05-25T12:39:14.880Z,2.90
2018-05-25T12:41:42.865Z,2.13
2018-05-25T12:44:10.752Z,2.00
2018-05-25T12:46:38.676Z,2.57
2018-05-25T12:49:06.586Z,2.23
2018-05-25T12:51:34.496Z,2.70
2018-05-25T12:54:02.409Z,2.27
2018-05-25T12:56:30.313Z,1.60
2018-05-25T12:58:58.251Z,1.53
2018-05-25T13:01:26.171Z,1.73
2018-05-25T13:03:54.191Z,1.93
2018-05-25T13:06:22.094Z,1.80
2018-05-25T13:08:50.015Z,2.03
2018-05-25T13:11:17.923Z,1.63
2018-05-25T13:13:45.819Z,1.70
2018-05-25T13:16:13.752Z,1.63
2018-05-25T13:18:41.726Z,1.20
2018-05-25T13:21:09.643Z,2.10
2018-05-25T13:23:37.559Z,1.77
2018-05-25T13:26:05.484Z,2.80
2018-05-25T13:28:33.398Z,3.47
2018-05-25T13:31:01.353Z,4.73
2018-05-25T13:33:29.267Z,3.57
2018-05-25T13:35:57.279Z,9.83
2018-05-25T13:38:25.193Z,7.93
2018-05-25T13:40:53.155Z,7.73
2018-05-25T13:43:21.089Z,7.97
2018-05-25T13:45:49.022Z,24.47
2018-05-25T13:48:16.935Z,31.37
2018-05-25T13:50:44.860Z,9.07
2018-05-25T13:53:12.768Z,3.63
2018-05-25T13:55:40.691Z,6.37
2018-05-25T13:58:08.587Z,7.30
2018-05-25T14:00:36.495Z,7.83
2018-05-25T14:03:04.400Z,4.13
2018-05-25T14:05:32.323Z,2.80
2018-05-25T14:08:00.262Z,4.33
2018-05-25T14:10:28.178Z,4.23
2018-05-25T14:12:56.123Z,2.90
2018-05-25T14:15:24.051Z,2.90
2018-05-25T14:17:51.961Z,3.77
2018-05-25T14:20:19.886Z,2.93
2018-05-25T14:22:48.505Z,2.73
2018-05-25T14:25:16.480Z,5.03
2018-05-25T14:27:44.393Z,6.07
2018-05-25T14:30:12.297Z,8.73
2018-05-25T14:32:40.228Z,11.37
2018-05-25T14:35:08.202Z,3.97
2018-05-25T14:37:36.136Z,11.13
2018-05-25T14:40:04.038Z,9.77
2018-05-25T14:42:31.950Z,7.53
2018-05-25T14:44:59.872Z,43.10
2018-05-25T14:47:27.801Z,5.80
2018-05-25T14:49:55.730Z,6.03
2018-05-25T14:52:23.635Z,5.90
2018-05-25T14:54:51.573Z,8.37
2018-05-25T14:57:19.485Z,4.00
2018-05-25T14:59:47.392Z,3.60
2018-05-25T15:02:15.366Z,3.83
2018-05-25T15:04:43.232Z,7.80
2018-05-25T15:07:11.154Z,6.67
2018-05-25T15:09:39.109Z,5.07
2018-05-25T15:12:06.966Z,5.33
2018-05-25T15:14:34.868Z,3.37
2018-05-25T15:17:02.795Z,2.40
2018-05-25T15:19:30.695Z,5.30
2018-05-25T15:21:58.639Z,3.17
2018-05-25T15:24:26.547Z,3.63
2018-05-25T15:26:54.484Z,4.33
2018-05-25T15:29:22.410Z,2.33
2018-05-25T15:31:50.362Z,2.20
2018-05-25T15:34:18.229Z,2.80
2018-05-25T15:36:46.151Z,2.83
2018-05-25T15:39:14.054Z,2.73
2018-05-25T15:41:41.996Z,2.50
2018-05-25T15:44:09.994Z,2.20
2018-05-25T15:46:37.950Z,2.10
2018-05-25T15:49:05.862Z,2.20
2018-05-25T15:51:33.835Z,2.10
2018-05-25T15:54:01.846Z,2.23
2018-05-25T15:56:29.895Z,2.73
2018-05-25T15:58:57.786Z,2.03
2018-05-25T16:01:25.719Z,2.10
2018-05-25T16:03:53.634Z,2.33
2018-05-25T16:06:21.557Z,2.43
2018-05-25T16:08:49.542Z,2.40
2018-05-25T16:11:18.380Z,3.03
2018-05-25T16:13:46.410Z,2.73
2018-05-25T16:16:14.404Z,3.00
2018-05-25T16:18:42.316Z,2.20
2018-05-25T16:21:10.265Z,2.33
2018-05-25T16:23:38.178Z,2.10
2018-05-25T16:26:06.124Z,2.17
2018-05-25T16:28:34.048Z,1.93
2018-05-25T16:31:01.987Z,2.07
2018-05-25T16:33:29.897Z,2.17
2018-05-25T16:35:58.268Z,2.30
2018-05-25T16:38:26.352Z,3.43
2018-05-25T16:40:54.263Z,1.70
2018-05-25T16:43:22.181Z,16.23
2018-05-25T16:45:50.131Z,23.07
2018-05-25T16:48:18.045Z,12.57
2018-05-25T16:50:45.993Z,10.73
2018-05-25T16:53:13.939Z,26.57
2018-05-25T16:55:41.869Z,53.23
2018-05-25T16:58:10.216Z,25.97
2018-05-25T17:00:38.152Z,20.43
2018-05-25T17:03:06.091Z,13.43
2018-05-25T17:05:34.040Z,14.67
2018-05-25T17:08:02.475Z,13.67
2018-05-25T17:10:30.402Z,12.40
2018-05-25T17:12:58.328Z,4.67
2018-05-25T17:15:26.244Z,6.50
2018-05-25T17:17:54.154Z,6.73
2018-05-25T17:20:22.089Z,2.73
2018-05-25T17:22:49.987Z,2.33
2018-05-25T17:25:17.944Z,2.47
2018-05-25T17:27:45.880Z,2.90
2018-05-25T17:30:13.834Z,2.43
2018-05-25T17:32:41.743Z,4.10
2018-05-25T17:35:09.657Z,3.10
2018-05-25T17:37:37.579Z,2.40
2018-05-25T17:40:05.498Z,2.73
2018-05-25T17:42:33.444Z,2.63
2018-05-25T17:45:01.374Z,2.97
2018-05-25T17:47:29.347Z,2.97
2018-05-25T17:49:57.311Z,2.30
2018-05-25T17:52:25.730Z,2.50
2018-05-25T17:54:53.656Z,3.10
2018-05-25T17:57:21.591Z,2.47
2018-05-25T17:59:49.549Z,2.67
2018-05-25T18:02:17.510Z,2.90
2018-05-25T18:04:45.428Z,2.80
2018-05-25T18:07:13.345Z,4.90
2018-05-25T18:09:41.270Z,65.37
2018-05-25T18:12:09.190Z,51.23
2018-05-25T18:14:37.108Z,29.07
2018-05-25T18:17:05.055Z,9.67
2018-05-25T18:19:33.081Z,25.73
2018-05-25T18:22:01.020Z,21.57
2018-05-25T18:24:28.947Z,5.77
2018-05-25T18:26:56.875Z,5.37
2018-05-25T18:29:24.826Z,4.43
2018-05-25T18:31:52.882Z,3.90
2018-05-25T18:34:20.791Z,4.33
2018-05-25T18:36:48.715Z,4.20
2018-05-25T18:39:16.964Z,3.90
2018-05-25T18:41:44.867Z,3.50
2018-05-25T18:44:12.816Z,3.90
2018-05-25T18:46:40.729Z,3.03
2018-05-25T18:49:08.644Z,10.30
2018-05-25T18:51:36.563Z,29.53
2018-05-25T18:54:16.334Z,50.57
2018-05-25T18:56:44.996Z,42.30
2018-05-25T18:59:13.040Z,33.77
2018-05-25T19:01:40.945Z,26.30
2018-05-25T19:04:08.860Z,51.37
2018-05-25T19:06:36.806Z,28.77
2018-05-25T19:09:05.537Z,46.83
2018-05-25T19:11:33.464Z,18.37
2018-05-25T19:14:01.376Z,9.90
2018-05-25T19:16:29.343Z,9.00
2018-05-25T19:18:57.249Z,5.37
2018-05-25T19:21:25.146Z,5.93
2018-05-25T19:23:53.922Z,6.00
2018-05-25T19:26:21.840Z,5.90
2018-05-25T19:28:49.770Z,4.40
2018-05-25T19:31:17.666Z,4.47
2018-05-25T19:33:45.587Z,4.40
2018-05-25T19:36:13.505Z,4.10
2018-05-25T19:38:41.468Z,4.80
2018-05-25T19:41:09.333Z,4.33
2018-05-25T19:43:37.246Z,4.33
2018-05-25T19:46:05.150Z,4.30
2018-05-25T19:48:33.084Z,4.87
2018-05-25T19:51:00.983Z,4.40
2018-05-25T19:53:28.917Z,4.20
2018-05-25T19:55:56.819Z,4.70
2018-05-25T19:58:24.727Z,4.13
2018-05-25T20:00:52.660Z,4.27
2018-05-25T20:03:20.565Z,4.37
2018-05-25T20:05:48.493Z,5.33
2018-05-25T20:08:16.409Z,4.13
2018-05-25T20:10:44.737Z,4.00
2018-05-25T20:13:12.612Z,3.97
2018-05-25T20:15:40.515Z,5.33
2018-05-25T20:18:08.427Z,7.17
2018-05-25T20:20:36.360Z,52.87
2018-05-25T20:23:04.304Z,70.13
2018-05-25T20:25:32.225Z,54.07
2018-05-25T20:28:00.148Z,67.27
2018-05-25T20:30:28.059Z,210.20
2018-05-25T20:32:55.993Z,63.87
2018-05-25T20:35:23.953Z,111.37
2018-05-25T20:37:51.878Z,13.50
2018-05-25T20:40:19.794Z,5.93
2018-05-25T20:42:47.786Z,25.67
2018-05-25T20:45:15.678Z,11.13
2018-05-25T20:47:43.632Z,14.50
2018-05-25T20:50:11.553Z,10.37
2018-05-25T20:52:39.481Z,4.23
2018-05-25T20:55:07.406Z,3.90
2018-05-25T20:57:35.335Z,7.53
2018-05-25T21:00:03.379Z,35.20
2018-05-25T21:02:31.303Z,31.17
2018-05-25T21:04:59.228Z,24.80
2018-05-25T21:07:27.158Z,27.67
2018-05-25T21:09:55.086Z,32.47
2018-05-25T21:12:23.079Z,13.03
2018-05-25T21:14:50.950Z,7.80
2018-05-25T21:17:18.957Z,6.37
2018-05-25T21:19:46.923Z,5.23
2018-05-25T21:22:14.840Z,4.93
2018-05-25T21:24:42.805Z,3.93
2018-05-25T21:27:10.689Z,4.40
2018-05-25T21:29:38.612Z,4.13
2018-05-25T21:32:06.523Z,4.40
2018-05-25T21:34:34.430Z,4.17
2018-05-25T21:37:02.359Z,5.10
2018-05-25T21:39:30.284Z,9.77
2018-05-25T21:41:58.228Z,8.97
2018-05-25T21:44:26.148Z,7.17
2018-05-25T21:46:54.063Z,4.50
2018-05-25T21:49:21.988Z,4.23
2018-05-25T21:51:51.745Z,4.23
2018-05-25T21:54:19.643Z,3.77
2018-05-25T21:56:47.575Z,3.80
2018-05-25T21:59:15.505Z,4.10
2018-05-25T22:01:43.864Z,3.80
2018-05-25T22:04:11.786Z,4.17
2018-05-25T22:06:39.713Z,22.53
2018-05-25T22:09:07.622Z,28.23
2018-05-25T22:11:35.556Z,59.47
2018-05-25T22:14:03.488Z,49.40
2018-05-25T22:16:31.467Z,40.53
2018-05-25T22:18:59.327Z,20.63
2018-05-25T22:21:27.255Z,15.57
2018-05-25T22:23:55.188Z,6.57
2018-05-25T22:26:23.112Z,8.60
2018-05-25T22:28:51.021Z,10.53
2018-05-25T22:31:18.940Z,4.63
2018-05-25T22:33:46.889Z,4.30
2018-05-25T22:36:14.825Z,3.73
2018-05-25T22:38:42.728Z,3.97
2018-05-25T22:41:10.649Z,3.77
2018-05-25T22:43:50.321Z,3.73
2018-05-25T22:46:29.915Z,3.97
2018-05-25T22:49:09.631Z,5.37
2018-05-25T22:51:49.235Z,4.23
2018-05-25T22:54:31.263Z,4.30
2018-05-25T22:56:59.201Z,4.70
2018-05-25T22:59:27.109Z,4.40
2018-05-25T23:01:55.067Z,4.40
2018-05-25T23:04:22.951Z,4.77
2018-05-25T23:06:51.185Z,5.23
2018-05-25T23:09:19.096Z,6.40
2018-05-25T23:11:47.155Z,6.20
2018-05-25T23:14:15.061Z,7.40
2018-05-25T23:16:43.023Z,7.10
2018-05-25T23:19:10.959Z,8.20
2018-05-25T23:21:38.891Z,8.37
2018-05-25T23:24:06.811Z,7.73
2018-05-25T23:26:34.717Z,6.23
2018-05-25T23:29:02.671Z,5.63
2018-05-25T23:31:30.614Z,5.40
2018-05-25T23:33:58.532Z,5.20
2018-05-25T23:36:26.452Z,4.07
2018-05-25T23:38:54.396Z,4.57
2018-05-25T23:41:22.317Z,4.30
2018-05-25T23:43:50.279Z,4.47
2018-05-25T23:46:18.213Z,4.60
2018-05-25T23:48:46.139Z,4.53
2018-05-25T23:51:14.088Z,5.17
2018-05-25T23:53:42.059Z,4.27
2018-05-25T23:56:09.947Z,4.87
2018-05-25T23:58:38.324Z,4.87
